Terminal Aerodrome Forecast
Issued by NWS Blacksburg, VA

Home | Current Version | Previous Version | Text Only | Print | Product List | Glossary On
Versions: 1 2 3 4 5 6 7 8 9 10 11 12 13 14 15 16
000
FTUS41 KRNK 210532
TAFROA
TAF
KROA 210532Z 2106/2206 13004KT P6SM SCT030 SCT250
     FM210800 VRB03KT 4SM BR SCT015
      TEMPO 2109/2113 1/4SM FG VV003
     FM211400 21008KT P6SM SCT040 BKN250
     FM220300 VRB03KT P6SM OVC025=

USA.gov is the U.S. government's official web portal to all federal, state and local government web resources and services.